sensor_id;sensor_type;location;lat;lon;timestamp;pressure;altitude;pressure_sealevel;temperature
67966;BMP280;54749;47.850;9.002;2022-10-15T00:00:40;95615.94;;;14.18
67966;BMP280;54749;47.850;9.002;2022-10-15T00:03:26;95615.94;;;14.18
67966;BMP280;54749;47.850;9.002;2022-10-15T00:05:53;95615.94;;;14.18
67966;BMP280;54749;47.850;9.002;2022-10-15T00:08:19;95616.75;;;14.19
67966;BMP280;54749;47.850;9.002;2022-10-15T00:10:46;95617.56;;;14.19
67966;BMP280;54749;47.850;9.002;2022-10-15T00:13:13;95624.22;;;14.20
67966;BMP280;54749;47.850;9.002;2022-10-15T00:15:40;95616.59;;;14.20
67966;BMP280;54749;47.850;9.002;2022-10-15T00:18:06;95611.38;;;14.21
67966;BMP280;54749;47.850;9.002;2022-10-15T00:20:33;95616.47;;;14.21
67966;BMP280;54749;47.850;9.002;2022-10-15T00:23:00;95613.78;;;14.23
67966;BMP280;54749;47.850;9.002;2022-10-15T00:25:26;95610.44;;;14.22
67966;BMP280;54749;47.850;9.002;2022-10-15T00:27:53;95608.41;;;14.26
67966;BMP280;54749;47.850;9.002;2022-10-15T00:30:20;95607.75;;;14.24
67966;BMP280;54749;47.850;9.002;2022-10-15T00:32:47;95616.97;;;14.25
67966;BMP280;54749;47.850;9.002;2022-10-15T00:35:14;95616.03;;;14.26
67966;BMP280;54749;47.850;9.002;2022-10-15T00:37:40;95619.22;;;14.28
67966;BMP280;54749;47.850;9.002;2022-10-15T00:40:11;95611.59;;;14.28
67966;BMP280;54749;47.850;9.002;2022-10-15T00:42:38;95604.91;;;14.27
67966;BMP280;54749;47.850;9.002;2022-10-15T00:45:05;95625.75;;;14.30
67966;BMP280;54749;47.850;9.002;2022-10-15T00:47:37;95609.06;;;14.28
67966;BMP280;54749;47.850;9.002;2022-10-15T00:50:17;95619.06;;;14.29
67966;BMP280;54749;47.850;9.002;2022-10-15T00:52:58;95614.78;;;14.30
67966;BMP280;54749;47.850;9.002;2022-10-15T00:55:27;95605.41;;;14.30
67966;BMP280;54749;47.850;9.002;2022-10-15T00:57:58;95609.44;;;14.33
67966;BMP280;54749;47.850;9.002;2022-10-15T01:00:26;95611.81;;;14.34
67966;BMP280;54749;47.850;9.002;2022-10-15T01:02:55;95596.41;;;14.36
67966;BMP280;54749;47.850;9.002;2022-10-15T01:05:22;95601.50;;;14.36
67966;BMP280;54749;47.850;9.002;2022-10-15T01:07:50;95593.88;;;14.36
67966;BMP280;54749;47.850;9.002;2022-10-15T01:10:19;95591.97;;;14.37
67966;BMP280;54749;47.850;9.002;2022-10-15T01:13:10;95592.78;;;14.38
67966;BMP280;54749;47.850;9.002;2022-10-15T01:18:50;95593.31;;;14.41
67966;BMP280;54749;47.850;9.002;2022-10-15T01:21:42;95596.47;;;14.43
67966;BMP280;54749;47.850;9.002;2022-10-15T01:24:32;95592.88;;;14.46
67966;BMP280;54749;47.850;9.002;2022-10-15T01:37:39;95598.16;;;14.52
67966;BMP280;54749;47.850;9.002;2022-10-15T01:40:08;95604.66;;;14.54
67966;BMP280;54749;47.850;9.002;2022-10-15T01:43:06;95592.63;;;14.56
67966;BMP280;54749;47.850;9.002;2022-10-15T01:46:01;95589.94;;;14.58
67966;BMP280;54749;47.850;9.002;2022-10-15T01:48:53;95580.56;;;14.58
67966;BMP280;54749;47.850;9.002;2022-10-15T01:51:23;95581.34;;;14.59
67966;BMP280;54749;47.850;9.002;2022-10-15T01:53:57;95581.34;;;14.59
67966;BMP280;54749;47.850;9.002;2022-10-15T01:56:26;95569.59;;;14.58
67966;BMP280;54749;47.850;9.002;2022-10-15T01:58:54;95564.34;;;14.59
67966;BMP280;54749;47.850;9.002;2022-10-15T02:01:21;95558.97;;;14.62
67966;BMP280;54749;47.850;9.002;2022-10-15T02:03:50;95560.56;;;14.63
67966;BMP280;54749;47.850;9.002;2022-10-15T02:06:39;95562.97;;;14.65
67966;BMP280;54749;47.850;9.002;2022-10-15T02:12:08;95567.09;;;14.66
67966;BMP280;54749;47.850;9.002;2022-10-15T02:15:04;95556.94;;;14.66
67966;BMP280;54749;47.850;9.002;2022-10-15T02:17:39;95568.69;;;14.67
67966;BMP280;54749;47.850;9.002;2022-10-15T02:20:50;95563.44;;;14.68
67966;BMP280;54749;47.850;9.002;2022-10-15T02:23:25;95567.72;;;14.68
67966;BMP280;54749;47.850;9.002;2022-10-15T02:25:58;95557.56;;;14.68
67966;BMP280;54749;47.850;9.002;2022-10-15T02:28:26;95566.78;;;14.69
67966;BMP280;54749;47.850;9.002;2022-10-15T02:30:55;95570.00;;;14.71
67966;BMP280;54749;47.850;9.002;2022-10-15T02:33:25;95564.91;;;14.71
67966;BMP280;54749;47.850;9.002;2022-10-15T02:35:53;95556.97;;;14.73
67966;BMP280;54749;47.850;9.002;2022-10-15T02:38:23;95558.56;;;14.74
67966;BMP280;54749;47.850;9.002;2022-10-15T02:40:51;95566.84;;;14.76
67966;BMP280;54749;47.850;9.002;2022-10-15T02:43:19;95557.34;;;14.78
67966;BMP280;54749;47.850;9.002;2022-10-15T02:45:49;95564.03;;;14.79
67966;BMP280;54749;47.850;9.002;2022-10-15T02:48:16;95559.72;;;14.80
67966;BMP280;54749;47.850;9.002;2022-10-15T02:50:45;95557.81;;;14.82
67966;BMP280;54749;47.850;9.002;2022-10-15T02:53:13;95554.47;;;14.81
67966;BMP280;54749;47.850;9.002;2022-10-15T02:55:41;95552.59;;;14.83
67966;BMP280;54749;47.850;9.002;2022-10-15T02:58:08;95561.03;;;14.84
67966;BMP280;54749;47.850;9.002;2022-10-15T03:00:35;95558.47;;;14.84
67966;BMP280;54749;47.850;9.002;2022-10-15T03:03:02;95555.94;;;14.84
67966;BMP280;54749;47.850;9.002;2022-10-15T03:05:29;95563.41;;;14.85
67966;BMP280;54749;47.850;9.002;2022-10-15T03:07:58;95556.75;;;14.84
67966;BMP280;54749;47.850;9.002;2022-10-15T03:10:26;95563.41;;;14.85
67966;BMP280;54749;47.850;9.002;2022-10-15T03:12:53;95558.31;;;14.85
67966;BMP280;54749;47.850;9.002;2022-10-15T03:15:20;95557.53;;;14.85
67966;BMP280;54749;47.850;9.002;2022-10-15T03:17:47;95565.00;;;14.86
67966;BMP280;54749;47.850;9.002;2022-10-15T03:20:16;95558.31;;;14.85
67966;BMP280;54749;47.850;9.002;2022-10-15T03:22:43;95565.00;;;14.86
67966;BMP280;54749;47.850;9.002;2022-10-15T03:25:10;95569.97;;;14.88
67966;BMP280;54749;47.850;9.002;2022-10-15T03:27:36;95567.56;;;14.86
67966;BMP280;54749;47.850;9.002;2022-10-15T03:30:12;95569.16;;;14.87
67966;BMP280;54749;47.850;9.002;2022-10-15T03:32:40;95577.59;;;14.88
67966;BMP280;54749;47.850;9.002;2022-10-15T03:35:12;95577.59;;;14.88
67966;BMP280;54749;47.850;9.002;2022-10-15T03:37:39;95566.63;;;14.87
67966;BMP280;54749;47.850;9.002;2022-10-15T03:40:08;95578.38;;;14.88
67966;BMP280;54749;47.850;9.002;2022-10-15T03:42:39;95575.19;;;14.86
67966;BMP280;54749;47.850;9.002;2022-10-15T03:45:08;95578.38;;;14.88
67966;BMP280;54749;47.850;9.002;2022-10-15T03:47:35;95580.13;;;14.88
67966;BMP280;54749;47.850;9.002;2022-10-15T03:50:02;95575.03;;;14.88
67966;BMP280;54749;47.850;9.002;2022-10-15T03:52:29;95575.19;;;14.86
67966;BMP280;54749;47.850;9.002;2022-10-15T03:54:57;95570.91;;;14.87
67966;BMP280;54749;47.850;9.002;2022-10-15T03:57:24;95569.16;;;14.87
67966;BMP280;54749;47.850;9.002;2022-10-15T03:59:57;95581.06;;;14.87
67966;BMP280;54749;47.850;9.002;2022-10-15T04:02:26;95583.63;;;14.87
67966;BMP280;54749;47.850;9.002;2022-10-15T04:04:55;95586.81;;;14.89
67966;BMP280;54749;47.850;9.002;2022-10-15T04:07:22;95593.66;;;14.88
67966;BMP280;54749;47.850;9.002;2022-10-15T04:09:49;95588.56;;;14.88
67966;BMP280;54749;47.850;9.002;2022-10-15T04:12:23;95588.56;;;14.88
67966;BMP280;54749;47.850;9.002;2022-10-15T04:14:51;95588.56;;;14.88
67966;BMP280;54749;47.850;9.002;2022-10-15T04:17:18;95591.91;;;14.89
67966;BMP280;54749;47.850;9.002;2022-10-15T04:19:45;95589.38;;;14.89
67966;BMP280;54749;47.850;9.002;2022-10-15T04:22:13;95590.16;;;14.89
67966;BMP280;54749;47.850;9.002;2022-10-15T04:24:46;95588.56;;;14.88
67966;BMP280;54749;47.850;9.002;2022-10-15T04:27:23;95593.38;;;14.91
67966;BMP280;54749;47.850;9.002;2022-10-15T04:29:50;95586.97;;;14.87
67966;BMP280;54749;47.850;9.002;2022-10-15T04:32:17;95589.38;;;14.89
67966;BMP280;54749;47.850;9.002;2022-10-15T04:34:45;95593.66;;;14.88
67966;BMP280;54749;47.850;9.002;2022-10-15T04:37:14;95592.84;;;14.88
67966;BMP280;54749;47.850;9.002;2022-10-15T04:39:41;95587.75;;;14.88
67966;BMP280;54749;47.850;9.002;2022-10-15T04:42:11;95586.81;;;14.89
67966;BMP280;54749;47.850;9.002;2022-10-15T04:44:39;95601.94;;;14.90
67966;BMP280;54749;47.850;9.002;2022-10-15T04:47:06;95585.09;;;14.89
67966;BMP280;54749;47.850;9.002;2022-10-15T04:49:32;95595.25;;;14.89
67966;BMP280;54749;47.850;9.002;2022-10-15T04:52:05;95601.94;;;14.90
67966;BMP280;54749;47.850;9.002;2022-10-15T04:54:51;95590.03;;;14.90
67966;BMP280;54749;47.850;9.002;2022-10-15T04:57:18;95605.44;;;14.89
67966;BMP280;54749;47.850;9.002;2022-10-15T04:59:45;95603.56;;;14.91
67966;BMP280;54749;47.850;9.002;2022-10-15T05:02:30;95598.47;;;14.91
67966;BMP280;54749;47.850;9.002;2022-10-15T05:05:19;95601.81;;;14.91
67966;BMP280;54749;47.850;9.002;2022-10-15T05:07:58;95618.53;;;14.94
67966;BMP280;54749;47.850;9.002;2022-10-15T05:10:25;95615.34;;;14.92
67966;BMP280;54749;47.850;9.002;2022-10-15T05:12:52;95609.31;;;14.93
67966;BMP280;54749;47.850;9.002;2022-10-15T05:15:28;95606.75;;;14.93
67966;BMP280;54749;47.850;9.002;2022-10-15T05:17:55;95604.22;;;14.93
67966;BMP280;54749;47.850;9.002;2022-10-15T05:20:28;95611.84;;;14.93
67966;BMP280;54749;47.850;9.002;2022-10-15T05:22:55;95617.75;;;14.93
67966;BMP280;54749;47.850;9.002;2022-10-15T05:25:26;95626.16;;;14.94
67966;BMP280;54749;47.850;9.002;2022-10-15T05:27:54;95619.50;;;14.93
67966;BMP280;54749;47.850;9.002;2022-10-15T05:30:21;95622.03;;;14.93
67966;BMP280;54749;47.850;9.002;2022-10-15T05:32:51;95617.75;;;14.93
67966;BMP280;54749;47.850;9.002;2022-10-15T05:35:20;95627.13;;;14.93
67966;BMP280;54749;47.850;9.002;2022-10-15T05:38:13;95630.59;;;14.92
67966;BMP280;54749;47.850;9.002;2022-10-15T05:40:40;95629.81;;;14.91
67966;BMP280;54749;47.850;9.002;2022-10-15T05:43:14;95633.28;;;14.90
67966;BMP280;54749;47.850;9.002;2022-10-15T05:45:41;95636.50;;;14.92
67966;BMP280;54749;47.850;9.002;2022-10-15T05:48:08;95640.66;;;14.93
67966;BMP280;54749;47.850;9.002;2022-10-15T05:50:35;95642.41;;;14.93
67966;BMP280;54749;47.850;9.002;2022-10-15T05:53:05;95658.28;;;14.95
67966;BMP280;54749;47.850;9.002;2022-10-15T05:55:37;95645.56;;;14.95
67966;BMP280;54749;47.850;9.002;2022-10-15T05:58:05;95652.25;;;14.96
67966;BMP280;54749;47.850;9.002;2022-10-15T06:00:32;95651.31;;;14.97
67966;BMP280;54749;47.850;9.002;2022-10-15T06:02:58;95653.06;;;14.96
67966;BMP280;54749;47.850;9.002;2022-10-15T06:05:25;95658.97;;;14.97
67966;BMP280;54749;47.850;9.002;2022-10-15T06:07:52;95654.81;;;14.96
67966;BMP280;54749;47.850;9.002;2022-10-15T06:10:19;95656.56;;;14.95
67966;BMP280;54749;47.850;9.002;2022-10-15T06:12:49;95654.81;;;14.96
67966;BMP280;54749;47.850;9.002;2022-10-15T06:15:17;95677.72;;;14.96
67966;BMP280;54749;47.850;9.002;2022-10-15T06:17:44;95679.31;;;14.97
67966;BMP280;54749;47.850;9.002;2022-10-15T06:20:11;95673.44;;;14.96
67966;BMP280;54749;47.850;9.002;2022-10-15T06:22:38;95674.22;;;14.97
67966;BMP280;54749;47.850;9.002;2022-10-15T06:25:05;95680.91;;;14.98
67966;BMP280;54749;47.850;9.002;2022-10-15T06:27:32;95679.00;;;15.00
67966;BMP280;54749;47.850;9.002;2022-10-15T06:29:59;95682.50;;;14.99
67966;BMP280;54749;47.850;9.002;2022-10-15T06:32:26;95684.91;;;15.00
67966;BMP280;54749;47.850;9.002;2022-10-15T06:34:52;95687.31;;;15.02
67966;BMP280;54749;47.850;9.002;2022-10-15T06:37:19;95691.44;;;15.03
67966;BMP280;54749;47.850;9.002;2022-10-15T06:39:47;95703.34;;;15.02
67966;BMP280;54749;47.850;9.002;2022-10-15T06:42:13;95698.25;;;15.02
67966;BMP280;54749;47.850;9.002;2022-10-15T06:44:46;95704.16;;;15.03
67966;BMP280;54749;47.850;9.002;2022-10-15T06:47:15;95709.91;;;15.05
67966;BMP280;54749;47.850;9.002;2022-10-15T06:49:46;95719.16;;;15.06
67966;BMP280;54749;47.850;9.002;2022-10-15T06:52:12;95710.56;;;15.07
67966;BMP280;54749;47.850;9.002;2022-10-15T06:54:39;95721.25;;;15.10
67966;BMP280;54749;47.850;9.002;2022-10-15T06:57:06;95724.44;;;15.12
67966;BMP280;54749;47.850;9.002;2022-10-15T06:59:33;95721.44;;;15.16
67966;BMP280;54749;47.850;9.002;2022-10-15T07:02:09;95722.25;;;15.17
67966;BMP280;54749;47.850;9.002;2022-10-15T07:04:35;95721.81;;;15.21
67966;BMP280;54749;47.850;9.002;2022-10-15T07:07:03;95730.47;;;15.28
67966;BMP280;54749;47.850;9.002;2022-10-15T07:09:29;95728.25;;;15.33
67966;BMP280;54749;47.850;9.002;2022-10-15T07:11:56;95730.25;;;15.46
67966;BMP280;54749;47.850;9.002;2022-10-15T07:14:23;95732.28;;;15.60
67966;BMP280;54749;47.850;9.002;2022-10-15T07:16:50;95733.59;;;15.72
67966;BMP280;54749;47.850;9.002;2022-10-15T07:19:19;95724.09;;;15.81
67966;BMP280;54749;47.850;9.002;2022-10-15T07:21:46;95731.75;;;15.81
67966;BMP280;54749;47.850;9.002;2022-10-15T07:24:13;95732.75;;;15.88
67966;BMP280;54749;47.850;9.002;2022-10-15T07:26:40;95723.88;;;15.92
67966;BMP280;54749;47.850;9.002;2022-10-15T07:29:08;95717.56;;;16.04
67966;BMP280;54749;47.850;9.002;2022-10-15T07:31:35;95715.53;;;16.15
67966;BMP280;54749;47.850;9.002;2022-10-15T07:34:02;95726.25;;;16.18
67966;BMP280;54749;47.850;9.002;2022-10-15T07:36:29;95723.41;;;16.29
67966;BMP280;54749;47.850;9.002;2022-10-15T07:38:55;95731.06;;;16.37
67966;BMP280;54749;47.850;9.002;2022-10-15T07:41:22;95726.50;;;16.56
67966;BMP280;54749;47.850;9.002;2022-10-15T07:43:51;95733.44;;;16.86
67966;BMP280;54749;47.850;9.002;2022-10-15T07:46:19;95733.97;;;17.13
67966;BMP280;54749;47.850;9.002;2022-10-15T07:48:51;95725.31;;;17.45
67966;BMP280;54749;47.850;9.002;2022-10-15T07:51:18;95732.47;;;17.73
67966;BMP280;54749;47.850;9.002;2022-10-15T07:53:45;95730.53;;;17.98
67966;BMP280;54749;47.850;9.002;2022-10-15T07:56:14;95733.06;;;18.43
67966;BMP280;54749;47.850;9.002;2022-10-15T07:58:41;95729.03;;;19.08
67966;BMP280;54749;47.850;9.002;2022-10-15T08:01:09;95724.00;;;20.00
67966;BMP280;54749;47.850;9.002;2022-10-15T08:03:36;95718.69;;;21.54
67966;BMP280;54749;47.850;9.002;2022-10-15T08:06:05;95708.50;;;24.06
67966;BMP280;54749;47.850;9.002;2022-10-15T08:08:34;95694.19;;;25.93
67966;BMP280;54749;47.850;9.002;2022-10-15T08:11:09;95675.19;;;27.43
67966;BMP280;54749;47.850;9.002;2022-10-15T08:13:37;95687.88;;;28.52
67966;BMP280;54749;47.850;9.002;2022-10-15T08:16:11;95677.16;;;30.59
67966;BMP280;54749;47.850;9.002;2022-10-15T08:18:38;95679.44;;;31.69
67966;BMP280;54749;47.850;9.002;2022-10-15T08:21:06;95683.16;;;32.44
67966;BMP280;54749;47.850;9.002;2022-10-15T08:23:34;95674.31;;;33.20
67966;BMP280;54749;47.850;9.002;2022-10-15T08:26:01;95686.88;;;32.18
67966;BMP280;54749;47.850;9.002;2022-10-15T08:28:30;95699.78;;;30.74
67966;BMP280;54749;47.850;9.002;2022-10-15T08:30:58;95710.91;;;28.82
67966;BMP280;54749;47.850;9.002;2022-10-15T08:33:35;95718.19;;;28.47
67966;BMP280;54749;47.850;9.002;2022-10-15T08:36:04;95723.19;;;27.52
67966;BMP280;54749;47.850;9.002;2022-10-15T08:38:31;95737.09;;;27.29
67966;BMP280;54749;47.850;9.002;2022-10-15T08:41:00;95740.00;;;26.57
67966;BMP280;54749;47.850;9.002;2022-10-15T08:43:39;95744.97;;;25.94
67966;BMP280;54749;47.850;9.002;2022-10-15T08:46:22;95751.47;;;26.02
67966;BMP280;54749;47.850;9.002;2022-10-15T08:48:55;95737.66;;;26.67
67966;BMP280;54749;47.850;9.002;2022-10-15T08:51:39;95748.47;;;26.05
67966;BMP280;54749;47.850;9.002;2022-10-15T08:54:12;95749.06;;;24.74
67966;BMP280;54749;47.850;9.002;2022-10-15T08:56:47;95750.78;;;24.24
67966;BMP280;54749;47.850;9.002;2022-10-15T08:59:36;95756.06;;;23.16
67966;BMP280;54749;47.850;9.002;2022-10-15T09:02:18;95768.97;;;23.16
67966;BMP280;54749;47.850;9.002;2022-10-15T09:04:56;95761.81;;;23.17
67966;BMP280;54749;47.850;9.002;2022-10-15T09:10:14;95767.03;;;22.78
67966;BMP280;54749;47.850;9.002;2022-10-15T09:13:06;95761.72;;;22.13
67966;BMP280;54749;47.850;9.002;2022-10-15T09:15:48;95763.00;;;21.97
67966;BMP280;54749;47.850;9.002;2022-10-15T09:18:24;95773.75;;;21.59
67966;BMP280;54749;47.850;9.002;2022-10-15T09:20:52;95767.31;;;21.49
67966;BMP280;54749;47.850;9.002;2022-10-15T09:23:22;95767.88;;;21.86
67966;BMP280;54749;47.850;9.002;2022-10-15T09:28:47;95773.31;;;21.76
67966;BMP280;54749;47.850;9.002;2022-10-15T09:31:22;95787.75;;;21.77
67966;BMP280;54749;47.850;9.002;2022-10-15T09:33:57;95789.13;;;21.53
67966;BMP280;54749;47.850;9.002;2022-10-15T09:36:39;95782.13;;;21.47
67966;BMP280;54749;47.850;9.002;2022-10-15T09:42:36;95773.69;;;23.06
67966;BMP280;54749;47.850;9.002;2022-10-15T09:45:12;95770.25;;;23.45
67966;BMP280;54749;47.850;9.002;2022-10-15T09:47:41;95763.47;;;24.39
67966;BMP280;54749;47.850;9.002;2022-10-15T09:50:11;95776.97;;;23.39
67966;BMP280;54749;47.850;9.002;2022-10-15T09:52:59;95782.63;;;22.31
67966;BMP280;54749;47.850;9.002;2022-10-15T09:55:42;95785.19;;;21.57
67966;BMP280;54749;47.850;9.002;2022-10-15T10:03:24;95796.00;;;20.77
67966;BMP280;54749;47.850;9.002;2022-10-15T10:11:11;95789.06;;;21.26
67966;BMP280;54749;47.850;9.002;2022-10-15T10:16:18;95792.41;;;20.78
67966;BMP280;54749;47.850;9.002;2022-10-15T10:19:12;95798.09;;;20.88
67966;BMP280;54749;47.850;9.002;2022-10-15T10:21:41;95808.44;;;21.08
67966;BMP280;54749;47.850;9.002;2022-10-15T10:24:26;95807.09;;;20.98
67966;BMP280;54749;47.850;9.002;2022-10-15T10:26:58;95797.00;;;21.11
67966;BMP280;54749;47.850;9.002;2022-10-15T10:29:26;95790.72;;;21.34
67966;BMP280;54749;47.850;9.002;2022-10-15T10:32:11;95799.03;;;21.15
67966;BMP280;54749;47.850;9.002;2022-10-15T10:34:43;95806.84;;;20.93
67966;BMP280;54749;47.850;9.002;2022-10-15T10:37:15;95807.22;;;20.90
67966;BMP280;54749;47.850;9.002;2022-10-15T10:39:42;95814.31;;;20.74
67966;BMP280;54749;47.850;9.002;2022-10-15T10:44:44;95816.56;;;20.13
67966;BMP280;54749;47.850;9.002;2022-10-15T10:49:55;95815.06;;;19.90
67966;BMP280;54749;47.850;9.002;2022-10-15T10:57:48;95823.88;;;19.88
67966;BMP280;54749;47.850;9.002;2022-10-15T11:00:33;95821.66;;;19.85
67966;BMP280;54749;47.850;9.002;2022-10-15T11:03:01;95825.72;;;19.80
67966;BMP280;54749;47.850;9.002;2022-10-15T11:05:30;95828.41;;;19.86
67966;BMP280;54749;47.850;9.002;2022-10-15T11:10:45;95822.88;;;19.75
67966;BMP280;54749;47.850;9.002;2022-10-15T11:13:32;95825.34;;;19.68
67966;BMP280;54749;47.850;9.002;2022-10-15T11:16:16;95818.16;;;19.64
67966;BMP280;54749;47.850;9.002;2022-10-15T11:19:03;95812.16;;;19.71
67966;BMP280;54749;47.850;9.002;2022-10-15T11:24:58;95800.13;;;20.22
67966;BMP280;54749;47.850;9.002;2022-10-15T11:27:52;95796.28;;;20.54
67966;BMP280;54749;47.850;9.002;2022-10-15T11:30:27;95796.44;;;20.67
67966;BMP280;54749;47.850;9.002;2022-10-15T11:46:23;95784.66;;;21.41
67966;BMP280;54749;47.850;9.002;2022-10-15T11:52:06;95780.66;;;21.18
67966;BMP280;54749;47.850;9.002;2022-10-15T11:57:11;95768.19;;;21.15
67966;BMP280;54749;47.850;9.002;2022-10-15T12:00:05;95770.69;;;20.95
67966;BMP280;54749;47.850;9.002;2022-10-15T12:02:39;95772.53;;;21.01
67966;BMP280;54749;47.850;9.002;2022-10-15T12:05:09;95771.41;;;20.89
67966;BMP280;54749;47.850;9.002;2022-10-15T12:07:45;95762.78;;;21.10
67966;BMP280;54749;47.850;9.002;2022-10-15T12:18:24;95756.53;;;20.85
67966;BMP280;54749;47.850;9.002;2022-10-15T12:20:53;95751.97;;;20.52
67966;BMP280;54749;47.850;9.002;2022-10-15T12:23:24;95751.56;;;20.49
67966;BMP280;54749;47.850;9.002;2022-10-15T12:25:52;95745.03;;;20.46
67966;BMP280;54749;47.850;9.002;2022-10-15T12:28:26;95751.81;;;20.68
67966;BMP280;54749;47.850;9.002;2022-10-15T12:31:04;95751.53;;;20.77
67966;BMP280;54749;47.850;9.002;2022-10-15T12:33:44;95741.19;;;20.91
67966;BMP280;54749;47.850;9.002;2022-10-15T12:36:21;95752.94;;;21.00
67966;BMP280;54749;47.850;9.002;2022-10-15T12:39:06;95746.94;;;20.93
67966;BMP280;54749;47.850;9.002;2022-10-15T12:41:53;95749.63;;;20.51
67966;BMP280;54749;47.850;9.002;2022-10-15T12:44:31;95751.19;;;20.23
67966;BMP280;54749;47.850;9.002;2022-10-15T12:46:59;95757.50;;;20.21
67966;BMP280;54749;47.850;9.002;2022-10-15T12:51:53;95751.59;;;20.35
67966;BMP280;54749;47.850;9.002;2022-10-15T12:54:32;95757.84;;;20.46
67966;BMP280;54749;47.850;9.002;2022-10-15T12:57:01;95752.63;;;20.54
67966;BMP280;54749;47.850;9.002;2022-10-15T13:02:35;95738.63;;;20.28
67966;BMP280;54749;47.850;9.002;2022-10-15T13:05:04;95738.88;;;20.19
67966;BMP280;54749;47.850;9.002;2022-10-15T13:07:34;95733.31;;;20.01
67966;BMP280;54749;47.850;9.002;2022-10-15T13:10:04;95734.56;;;19.91
67966;BMP280;54749;47.850;9.002;2022-10-15T13:12:31;95750.81;;;19.84
67966;BMP280;54749;47.850;9.002;2022-10-15T13:15:01;95746.56;;;20.05
67966;BMP280;54749;47.850;9.002;2022-10-15T13:17:29;95749.16;;;20.05
67966;BMP280;54749;47.850;9.002;2022-10-15T13:20:04;95755.88;;;20.20
67966;BMP280;54749;47.850;9.002;2022-10-15T13:22:33;95745.88;;;20.39
67966;BMP280;54749;47.850;9.002;2022-10-15T13:25:01;95740.84;;;20.45
67966;BMP280;54749;47.850;9.002;2022-10-15T13:27:35;95736.88;;;20.43
67966;BMP280;54749;47.850;9.002;2022-10-15T13:32:46;95736.03;;;20.56
67966;BMP280;54749;47.850;9.002;2022-10-15T13:35:18;95728.28;;;20.50
67966;BMP280;54749;47.850;9.002;2022-10-15T13:37:46;95719.63;;;20.37
67966;BMP280;54749;47.850;9.002;2022-10-15T13:40:22;95713.41;;;20.32
67966;BMP280;54749;47.850;9.002;2022-10-15T13:43:16;95709.31;;;20.09
67966;BMP280;54749;47.850;9.002;2022-10-15T13:45:48;95715.19;;;20.17
67966;BMP280;54749;47.850;9.002;2022-10-15T13:48:30;95716.69;;;20.40
67966;BMP280;54749;47.850;9.002;2022-10-15T13:50:59;95720.31;;;20.80
67966;BMP280;54749;47.850;9.002;2022-10-15T13:53:31;95713.53;;;20.93
67966;BMP280;54749;47.850;9.002;2022-10-15T13:56:17;95718.47;;;21.08
67966;BMP280;54749;47.850;9.002;2022-10-15T13:58:46;95725.16;;;20.89
67966;BMP280;54749;47.850;9.002;2022-10-15T14:01:17;95716.34;;;20.77
67966;BMP280;54749;47.850;9.002;2022-10-15T14:06:21;95719.00;;;20.70
67966;BMP280;54749;47.850;9.002;2022-10-15T14:08:50;95723.28;;;20.63
67966;BMP280;54749;47.850;9.002;2022-10-15T14:11:18;95733.94;;;20.60
67966;BMP280;54749;47.850;9.002;2022-10-15T14:13:55;95737.00;;;20.70
67966;BMP280;54749;47.850;9.002;2022-10-15T14:16:29;95727.09;;;20.52
67966;BMP280;54749;47.850;9.002;2022-10-15T14:19:09;95720.31;;;20.45
67966;BMP280;54749;47.850;9.002;2022-10-15T14:21:43;95721.00;;;20.39
67966;BMP280;54749;47.850;9.002;2022-10-15T14:24:18;95722.06;;;20.31
67966;BMP280;54749;47.850;9.002;2022-10-15T14:26:46;95724.47;;;20.18
67966;BMP280;54749;47.850;9.002;2022-10-15T14:29:43;95729.16;;;20.00
67966;BMP280;54749;47.850;9.002;2022-10-15T14:32:28;95728.28;;;19.94
67966;BMP280;54749;47.850;9.002;2022-10-15T14:35:00;95729.44;;;19.91
67966;BMP280;54749;47.850;9.002;2022-10-15T14:45:27;95723.47;;;19.63
67966;BMP280;54749;47.850;9.002;2022-10-15T14:48:01;95724.25;;;19.63
67966;BMP280;54749;47.850;9.002;2022-10-15T14:50:36;95721.84;;;19.62
67966;BMP280;54749;47.850;9.002;2022-10-15T14:53:09;95727.69;;;19.56
67966;BMP280;54749;47.850;9.002;2022-10-15T14:55:41;95733.09;;;19.39
67966;BMP280;54749;47.850;9.002;2022-10-15T14:58:20;95735.91;;;19.29
67966;BMP280;54749;47.850;9.002;2022-10-15T15:00:54;95732.59;;;19.21
67966;BMP280;54749;47.850;9.002;2022-10-15T15:03:37;95732.59;;;19.21
67966;BMP280;54749;47.850;9.002;2022-10-15T15:06:04;95727.66;;;19.20
67966;BMP280;54749;47.850;9.002;2022-10-15T15:08:31;95731.00;;;19.20
67966;BMP280;54749;47.850;9.002;2022-10-15T15:11:00;95731.00;;;19.20
67966;BMP280;54749;47.850;9.002;2022-10-15T15:13:30;95736.75;;;19.22
67966;BMP280;54749;47.850;9.002;2022-10-15T15:15:57;95737.91;;;19.20
67966;BMP280;54749;47.850;9.002;2022-10-15T15:18:24;95739.22;;;19.16
67966;BMP280;54749;47.850;9.002;2022-10-15T15:20:51;95740.00;;;19.16
67966;BMP280;54749;47.850;9.002;2022-10-15T15:23:21;95731.88;;;19.13
67966;BMP280;54749;47.850;9.002;2022-10-15T15:25:49;95729.31;;;19.13
67966;BMP280;54749;47.850;9.002;2022-10-15T15:28:18;95726.78;;;19.05
67966;BMP280;54749;47.850;9.002;2022-10-15T15:30:50;95728.53;;;19.05
67966;BMP280;54749;47.850;9.002;2022-10-15T15:33:20;95724.94;;;18.99
67966;BMP280;54749;47.850;9.002;2022-10-15T15:36:10;95729.75;;;18.94
67966;BMP280;54749;47.850;9.002;2022-10-15T15:38:35;95730.13;;;18.84
67966;BMP280;54749;47.850;9.002;2022-10-15T15:41:15;95744.59;;;18.77
67966;BMP280;54749;47.850;9.002;2022-10-15T15:43:43;95739.53;;;18.69
67966;BMP280;54749;47.850;9.002;2022-10-15T15:46:13;95734.06;;;18.64
67966;BMP280;54749;47.850;9.002;2022-10-15T15:48:40;95728.31;;;18.62
67966;BMP280;54749;47.850;9.002;2022-10-15T15:51:20;95736.94;;;18.61
67966;BMP280;54749;47.850;9.002;2022-10-15T15:53:48;95728.03;;;18.58
67966;BMP280;54749;47.850;9.002;2022-10-15T15:56:14;95734.44;;;18.54
67966;BMP280;54749;47.850;9.002;2022-10-15T15:58:42;95742.81;;;18.48
67966;BMP280;54749;47.850;9.002;2022-10-15T16:01:08;95744.41;;;18.41
67966;BMP280;54749;47.850;9.002;2022-10-15T16:03:36;95748.78;;;18.33
67966;BMP280;54749;47.850;9.002;2022-10-15T16:06:06;95756.34;;;18.26
67966;BMP280;54749;47.850;9.002;2022-10-15T16:08:34;95759.25;;;18.16
67966;BMP280;54749;47.850;9.002;2022-10-15T16:11:02;95759.59;;;18.05
67966;BMP280;54749;47.850;9.002;2022-10-15T16:13:30;95753.88;;;17.95
67966;BMP280;54749;47.850;9.002;2022-10-15T16:15:57;95756.44;;;17.88